Time;durP1;ratioP1;P1;durP2;ratioP2;P2;SDS_P1;SDS_P2;PMS_P1;PMS_P2;Temp;Humidity;BMP_temperature;BMP_pressure;BME280_temperature;BME280_humidity;BME280_pressure;Samples;Min_cycle;Max_cycle;Signal;HPM_P1;HPM_P2
2023/05/20 00:00:52;;;;;;;11.70;3.90;;;12.70;91.50;;;;;;5077643;28;20071;-72
2023/05/20 00:03:21;;;;;;;12.77;4.50;;;12.60;91.60;;;;;;5061036;28;20071;-72
2023/05/20 00:05:47;;;;;;;10.50;4.22;;;12.60;91.90;;;;;;5077749;28;20551;-72
2023/05/20 00:08:13;;;;;;;13.73;4.40;;;12.60;92.00;;;;;;5077931;28;20044;-72
2023/05/20 00:10:40;;;;;;;10.50;4.05;;;12.50;92.30;;;;;;5077619;28;20396;-72
2023/05/20 00:13:06;;;;;;;11.68;4.53;;;12.50;92.60;;;;;;5077816;28;20032;-72
2023/05/20 00:15:32;;;;;;;9.70;4.07;;;12.50;92.80;;;;;;5077880;28;20462;-72
2023/05/20 00:18:00;;;;;;;14.15;4.63;;;12.50;92.90;;;;;;5060868;28;20040;-72
2023/05/20 00:20:25;;;;;;;10.18;4.18;;;12.50;93.10;;;;;;5077410;28;20169;-72
2023/05/20 00:22:51;;;;;;;10.90;4.20;;;12.40;93.30;;;;;;5077797;28;20135;-72
2023/05/20 00:25:17;;;;;;;13.10;4.72;;;12.40;93.50;;;;;;5077448;28;20518;-71
2023/05/20 00:27:43;;;;;;;10.55;4.13;;;12.40;93.60;;;;;;5075972;28;20052;-71
2023/05/20 00:30:09;;;;;;;13.25;4.22;;;12.40;93.80;;;;;;5077250;28;20100;-71
2023/05/20 00:32:34;;;;;;;11.52;4.63;;;12.40;94.00;;;;;;5060880;28;20425;-72
2023/05/20 00:35:01;;;;;;;12.70;4.18;;;12.40;94.10;;;;;;5077175;28;20039;-72
2023/05/20 00:37:27;;;;;;;10.98;4.75;;;12.30;94.30;;;;;;5077128;28;20050;-72
2023/05/20 00:39:53;;;;;;;10.00;4.40;;;12.40;94.50;;;;;;5077002;28;20146;-72
2023/05/20 00:42:20;;;;;;;13.52;4.40;;;12.30;94.70;;;;;;5077092;28;20072;-72
2023/05/20 00:44:46;;;;;;;9.50;4.43;;;12.30;94.80;;;;;;5060380;28;20044;-72
2023/05/20 00:47:12;;;;;;;12.18;5.32;;;12.30;95.00;;;;;;5076947;28;20089;-72
2023/05/20 00:49:38;;;;;;;14.45;4.40;;;12.30;95.20;;;;;;5076934;28;20067;-72
2023/05/20 00:52:04;;;;;;;10.93;3.97;;;12.30;95.30;;;;;;5077131;28;20435;-72
2023/05/20 00:54:31;;;;;;;14.45;4.32;;;12.30;95.30;;;;;;5076728;28;20474;-72
2023/05/20 00:56:58;;;;;;;11.13;3.95;;;12.30;95.50;;;;;;5076728;28;20046;-72
2023/05/20 00:59:25;;;;;;;14.80;4.38;;;12.30;95.60;;;;;;5076619;28;20043;-72
2023/05/20 01:01:51;;;;;;;12.93;4.05;;;12.30;95.80;;;;;;5076589;28;20115;-71
2023/05/20 01:04:17;;;;;;;11.95;4.45;;;12.30;95.80;;;;;;5076632;28;20075;-71
2023/05/20 01:06:45;;;;;;;17.20;4.55;;;12.30;96.00;;;;;;5076939;28;20078;-71
2023/05/20 01:09:11;;;;;;;13.25;4.20;;;12.30;96.20;;;;;;5059688;28;20097;-72
2023/05/20 01:11:49;;;;;;;12.85;4.03;;;12.30;96.40;;;;;;5059836;28;20450;-72
2023/05/20 01:14:17;;;;;;;13.80;4.85;;;12.30;96.50;;;;;;5076752;28;20048;-72
2023/05/20 01:16:46;;;;;;;11.90;4.20;;;12.30;96.60;;;;;;5076423;28;20036;-72
2023/05/20 01:19:34;;;;;;;11.68;4.85;;;12.30;96.60;;;;;;5060944;28;20043;-72
2023/05/20 01:22:02;;;;;;;10.38;4.20;;;12.30;97.00;;;;;;5076369;28;20036;-72
2023/05/20 01:24:27;;;;;;;8.35;3.85;;;12.20;97.30;;;;;;5076550;28;20047;-72
2023/05/20 01:26:53;;;;;;;14.05;4.82;;;12.20;97.10;;;;;;5076277;28;20412;-72
2023/05/20 01:29:18;;;;;;;9.88;4.40;;;12.30;97.20;;;;;;5094116;28;20072;-72
2023/05/20 01:31:46;;;;;;;12.45;4.40;;;12.30;97.30;;;;;;5076144;28;20039;-72
2023/05/20 01:34:12;;;;;;;10.80;4.60;;;12.30;97.30;;;;;;5076034;28;20558;-72
2023/05/20 01:36:40;;;;;;;11.90;4.43;;;12.30;97.50;;;;;;5076071;28;20044;-72
2023/05/20 01:39:05;;;;;;;12.32;4.28;;;12.30;97.50;;;;;;5075580;28;20465;-72
2023/05/20 01:41:34;;;;;;;8.98;4.13;;;12.30;97.60;;;;;;5075904;28;20086;-72
2023/05/20 01:44:00;;;;;;;13.63;4.43;;;12.30;97.70;;;;;;5075902;28;20040;-72
2023/05/20 01:46:25;;;;;;;12.20;4.40;;;12.30;97.70;;;;;;5075825;28;20036;-72
2023/05/20 01:48:51;;;;;;;7.90;4.05;;;12.30;97.70;;;;;;5076111;28;20040;-72
2023/05/20 01:51:17;;;;;;;11.82;4.25;;;12.30;97.70;;;;;;5075929;28;20377;-72
2023/05/20 01:53:43;;;;;;;9.38;4.15;;;12.30;97.70;;;;;;5075757;28;20435;-72
2023/05/20 01:56:08;;;;;;;12.07;4.40;;;12.20;97.80;;;;;;5075680;28;20078;-72
2023/05/20 01:58:34;;;;;;;10.93;3.78;;;12.20;97.90;;;;;;5075714;28;20036;-72
2023/05/20 02:01:00;;;;;;;12.18;4.50;;;12.20;98.00;;;;;;5075408;28;20032;-72
2023/05/20 02:03:26;;;;;;;11.15;4.00;;;12.10;98.00;;;;;;5075558;28;20400;-72
2023/05/20 02:05:51;;;;;;;10.90;4.88;;;12.10;98.20;;;;;;5075548;28;20039;-72
2023/05/20 02:08:17;;;;;;;9.27;3.80;;;12.10;98.40;;;;;;5075745;28;20046;-72
2023/05/20 02:10:42;;;;;;;10.20;4.57;;;12.00;98.30;;;;;;5058796;28;20481;-72
2023/05/20 02:13:08;;;;;;;11.57;4.15;;;12.00;98.60;;;;;;5075415;28;20036;-72
2023/05/20 02:15:34;;;;;;;8.60;4.30;;;12.00;98.60;;;;;;5075376;28;20028;-72
2023/05/20 02:17:59;;;;;;;9.43;4.13;;;12.00;98.70;;;;;;5075366;28;20076;-72
2023/05/20 02:20:25;;;;;;;14.20;4.38;;;12.00;98.70;;;;;;5075303;28;20132;-72
2023/05/20 02:22:50;;;;;;;8.82;3.75;;;12.00;98.80;;;;;;5075352;28;20085;-72
2023/05/20 02:25:16;;;;;;;16.67;4.35;;;12.00;98.80;;;;;;5075291;28;20082;-72
2023/05/20 02:27:41;;;;;;;11.30;4.10;;;11.90;98.80;;;;;;5075294;28;20042;-72
2023/05/20 02:30:07;;;;;;;10.32;3.55;;;11.90;99.00;;;;;;5058436;28;20036;-72
2023/05/20 02:32:33;;;;;;;9.90;4.28;;;11.90;98.90;;;;;;5075183;28;20036;-72
2023/05/20 02:34:59;;;;;;;10.82;3.83;;;11.90;99.40;;;;;;5075154;28;20040;-72
2023/05/20 02:37:24;;;;;;;11.35;4.68;;;11.90;99.10;;;;;;5075111;28;20046;-72
2023/05/20 02:39:50;;;;;;;10.13;3.88;;;11.90;99.10;;;;;;5075069;28;20039;-72
2023/05/20 02:42:16;;;;;;;9.40;4.47;;;11.90;99.10;;;;;;5075126;28;20054;-72
2023/05/20 02:44:41;;;;;;;10.13;4.00;;;11.80;99.10;;;;;;5075159;28;20039;-72
2023/05/20 02:47:07;;;;;;;12.93;3.92;;;11.80;99.20;;;;;;5075045;28;20044;-72
2023/05/20 02:49:32;;;;;;;7.95;3.70;;;11.80;99.30;;;;;;5058227;28;20032;-72
2023/05/20 02:51:58;;;;;;;12.57;4.15;;;11.70;99.40;;;;;;5078545;28;20093;-72
2023/05/20 02:54:23;;;;;;;9.10;3.92;;;11.80;99.50;;;;;;5079175;28;20404;-72
2023/05/20 02:56:49;;;;;;;8.32;3.97;;;11.80;99.60;;;;;;5079508;28;20040;-72
2023/05/20 02:59:15;;;;;;;10.30;4.05;;;11.80;99.60;;;;;;5079069;28;20469;-72
2023/05/20 03:01:40;;;;;;;11.90;4.03;;;11.80;99.50;;;;;;5062451;28;20130;-72
2023/05/20 03:04:07;;;;;;;12.65;3.80;;;11.70;99.60;;;;;;5078978;28;20411;-72
2023/05/20 03:06:33;;;;;;;8.32;3.65;;;11.80;99.50;;;;;;5078941;28;20051;-72
2023/05/20 03:08:58;;;;;;;8.48;3.60;;;11.70;99.50;;;;;;5062046;28;20047;-72
2023/05/20 03:11:24;;;;;;;9.68;3.83;;;11.70;99.50;;;;;;5079257;28;20070;-72
2023/05/20 03:13:50;;;;;;;10.75;3.80;;;11.70;99.60;;;;;;5078759;28;20085;-72
2023/05/20 03:16:16;;;;;;;9.98;4.07;;;11.70;99.60;;;;;;5061978;28;20032;-72
2023/05/20 03:18:42;;;;;;;8.45;3.53;;;11.70;99.60;;;;;;5078940;28;20131;-72
2023/05/20 03:21:08;;;;;;;8.75;3.30;;;11.70;99.70;;;;;;5078653;28;20554;-72
2023/05/20 03:23:34;;;;;;;11.77;3.78;;;11.70;99.90;;;;;;5078665;28;20039;-72
2023/05/20 03:25:59;;;;;;;7.25;3.20;;;11.70;99.90;;;;;;5078538;28;20051;-72
2023/05/20 03:28:25;;;;;;;10.57;4.15;;;11.70;99.90;;;;;;5078311;28;20040;-72
2023/05/20 03:30:51;;;;;;;6.85;3.40;;;11.70;99.80;;;;;;5078319;28;20032;-72
2023/05/20 03:33:16;;;;;;;6.85;3.13;;;11.70;99.80;;;;;;5078402;28;20036;-72
2023/05/20 03:35:42;;;;;;;7.38;3.00;;;11.70;99.90;;;;;;5078382;28;20028;-72
2023/05/20 03:38:07;;;;;;;9.43;3.40;;;11.60;99.90;;;;;;5078571;28;20028;-72
2023/05/20 03:40:33;;;;;;;7.60;3.53;;;11.60;99.90;;;;;;5078227;28;20129;-72
2023/05/20 03:42:59;;;;;;;7.60;3.47;;;11.60;99.90;;;;;;5078416;28;20039;-72
2023/05/20 03:45:24;;;;;;;10.30;3.42;;;11.60;99.90;;;;;;5061489;28;20511;-72
2023/05/20 03:47:50;;;;;;;7.38;3.17;;;11.60;99.90;;;;;;5078395;28;20047;-72
2023/05/20 03:50:16;;;;;;;8.00;3.40;;;11.60;99.90;;;;;;5078358;28;20055;-72
2023/05/20 03:52:42;;;;;;;6.47;3.08;;;11.60;99.90;;;;;;5078131;28;20123;-72
2023/05/20 03:55:08;;;;;;;7.30;3.10;;;11.60;99.90;;;;;;5077986;28;20123;-72
2023/05/20 03:57:35;;;;;;;8.73;3.08;;;11.60;99.90;;;;;;5061569;28;20032;-72
2023/05/20 04:00:01;;;;;;;9.13;3.47;;;11.60;99.90;;;;;;5061220;28;20047;-72
2023/05/20 04:02:27;;;;;;;7.30;3.05;;;11.60;99.90;;;;;;5077647;28;20044;-72
2023/05/20 04:04:52;;;;;;;6.30;2.83;;;11.60;99.90;;;;;;5077775;28;20043;-72
2023/05/20 04:07:18;;;;;;;6.50;2.47;;;11.60;99.90;;;;;;5061108;28;20032;-72
2023/05/20 04:09:43;;;;;;;6.30;3.00;;;11.60;99.90;;;;;;5077626;28;20036;-72
2023/05/20 04:12:10;;;;;;;10.30;2.90;;;11.60;99.90;;;;;;5077986;28;20043;-72
2023/05/20 04:14:35;;;;;;;5.78;2.97;;;11.60;99.90;;;;;;5077901;28;20040;-72
2023/05/20 04:17:05;;;;;;;6.60;2.97;;;11.60;99.90;;;;;;5077547;28;20553;-72
2023/05/20 04:19:31;;;;;;;6.30;2.97;;;11.70;99.90;;;;;;5077703;28;20569;-72
2023/05/20 04:21:56;;;;;;;6.55;2.78;;;11.70;99.90;;;;;;5077795;28;20036;-72
2023/05/20 04:24:26;;;;;;;7.80;2.60;;;11.70;99.90;;;;;;5077481;28;20522;-72
2023/05/20 04:26:52;;;;;;;8.40;3.05;;;11.70;99.90;;;;;;5077408;28;20036;-72
2023/05/20 04:29:18;;;;;;;4.88;2.63;;;11.80;99.90;;;;;;5077371;28;20145;-72
2023/05/20 04:31:47;;;;;;;6.20;2.67;;;11.80;99.90;;;;;;5077322;28;20397;-72
2023/05/20 04:34:13;;;;;;;6.07;2.60;;;11.80;99.80;;;;;;5077496;28;20066;-72
2023/05/20 04:36:39;;;;;;;7.40;2.70;;;11.90;99.70;;;;;;5077219;28;20089;-72
2023/05/20 04:39:06;;;;;;;7.20;2.70;;;11.90;99.60;;;;;;5077188;28;20043;-72
2023/05/20 04:41:32;;;;;;;7.18;2.95;;;11.90;99.50;;;;;;5077178;28;20044;-72
2023/05/20 04:43:59;;;;;;;5.90;2.25;;;12.00;99.40;;;;;;5060719;28;20040;-72
2023/05/20 04:46:25;;;;;;;4.75;2.55;;;12.00;99.30;;;;;;5077009;28;20044;-72
2023/05/20 04:48:51;;;;;;;6.22;2.50;;;12.00;99.10;;;;;;5076907;28;20036;-72
2023/05/20 04:51:16;;;;;;;6.65;2.28;;;12.10;99.10;;;;;;5076867;28;20040;-72
2023/05/20 04:53:43;;;;;;;7.82;2.45;;;12.10;99.00;;;;;;5077209;28;20031;-72
2023/05/20 04:56:10;;;;;;;9.32;2.67;;;12.10;98.90;;;;;;5076874;28;20072;-72
2023/05/20 04:58:35;;;;;;;8.18;2.53;;;12.20;98.90;;;;;;5076848;28;20470;-72
2023/05/20 05:01:01;;;;;;;5.45;2.00;;;12.30;98.70;;;;;;5059898;28;20123;-72
2023/05/20 05:03:27;;;;;;;8.57;2.45;;;12.30;98.50;;;;;;5060101;28;20032;-72
2023/05/20 05:05:56;;;;;;;5.15;2.55;;;12.40;98.30;;;;;;5076647;28;20055;-72
2023/05/20 05:08:22;;;;;;;8.63;2.30;;;12.40;98.10;;;;;;5059785;28;20032;-72
2023/05/20 05:10:47;;;;;;;6.72;2.03;;;12.50;97.80;;;;;;5076390;28;20059;-72
2023/05/20 05:13:13;;;;;;;7.13;2.10;;;12.50;97.70;;;;;;5075805;28;20067;-72
2023/05/20 05:15:38;;;;;;;3.95;2.25;;;12.60;97.60;;;;;;5076479;28;20044;-72
2023/05/20 05:18:04;;;;;;;7.65;2.20;;;12.60;97.40;;;;;;5076435;28;20059;-72
2023/05/20 05:20:30;;;;;;;4.30;1.90;;;12.70;97.10;;;;;;5059650;28;20127;-72
2023/05/20 05:22:55;;;;;;;6.80;2.08;;;12.70;96.80;;;;;;5076586;28;20094;-72
2023/05/20 05:25:21;;;;;;;6.75;1.70;;;12.80;96.40;;;;;;5059635;28;20501;-72
2023/05/20 05:27:49;;;;;;;6.80;1.75;;;12.70;96.00;;;;;;5076210;28;20051;-71
2023/05/20 05:30:15;;;;;;;3.08;1.85;;;12.70;95.70;;;;;;5076044;28;20056;-71
2023/05/20 05:32:41;;;;;;;4.40;1.80;;;12.70;95.40;;;;;;5076413;28;20044;-72
2023/05/20 05:35:07;;;;;;;5.03;1.70;;;12.70;95.20;;;;;;5076058;28;20040;-72
2023/05/20 05:37:33;;;;;;;5.13;1.60;;;12.60;94.90;;;;;;5076086;28;20047;-72
2023/05/20 05:39:59;;;;;;;6.30;1.67;;;12.70;94.60;;;;;;5076157;28;20043;-72
2023/05/20 05:42:24;;;;;;;4.20;1.63;;;12.70;94.40;;;;;;5076287;28;20400;-72
2023/05/20 05:44:50;;;;;;;4.00;1.73;;;12.80;94.20;;;;;;5076158;28;20052;-71
2023/05/20 05:47:16;;;;;;;3.53;1.50;;;12.90;93.80;;;;;;5075832;28;20047;-71
2023/05/20 05:49:42;;;;;;;5.25;1.60;;;13.00;93.20;;;;;;5076482;28;20110;-72
2023/05/20 05:52:08;;;;;;;4.60;1.35;;;13.00;92.70;;;;;;5059171;28;20126;-73
2023/05/20 05:54:33;;;;;;;2.92;1.55;;;13.00;92.40;;;;;;5075747;28;20032;-73
2023/05/20 05:56:59;;;;;;;3.55;1.30;;;13.10;92.10;;;;;;5075712;28;20085;-72
2023/05/20 05:59:25;;;;;;;3.60;1.50;;;13.10;91.90;;;;;;5075604;28;20036;-73
2023/05/20 06:01:50;;;;;;;4.60;1.50;;;13.10;91.60;;;;;;5075529;28;20048;-73
2023/05/20 06:04:16;;;;;;;5.95;1.35;;;13.20;91.30;;;;;;5075569;28;20044;-73
2023/05/20 06:06:42;;;;;;;3.45;1.52;;;13.20;91.00;;;;;;5075793;28;20043;-73
2023/05/20 06:09:07;;;;;;;3.88;1.50;;;13.20;90.90;;;;;;5075356;28;20509;-73
2023/05/20 06:11:33;;;;;;;3.47;1.60;;;13.30;90.80;;;;;;5058820;28;20031;-72
2023/05/20 06:13:59;;;;;;;4.55;1.42;;;13.40;90.40;;;;;;5059112;28;20066;-72
2023/05/20 06:16:25;;;;;;;4.43;1.75;;;13.40;90.20;;;;;;5075459;28;20036;-73
2023/05/20 06:18:52;;;;;;;4.15;1.30;;;13.50;90.10;;;;;;5058716;28;20048;-73
2023/05/20 06:21:18;;;;;;;4.45;1.30;;;13.50;89.50;;;;;;5058776;28;20070;-73
2023/05/20 06:23:43;;;;;;;3.28;1.38;;;13.60;89.20;;;;;;5075739;28;20493;-73
2023/05/20 06:26:09;;;;;;;3.28;1.00;;;13.60;88.70;;;;;;5075600;28;20048;-71
2023/05/20 06:28:34;;;;;;;4.05;1.60;;;13.70;88.40;;;;;;5075180;28;20542;-71
2023/05/20 06:31:00;;;;;;;3.30;1.50;;;13.80;87.60;;;;;;5075412;28;20089;-70
2023/05/20 06:33:27;;;;;;;6.13;1.20;;;13.80;87.50;;;;;;5075454;28;20082;-70
2023/05/20 06:35:55;;;;;;;3.78;1.35;;;13.90;86.90;;;;;;5075205;28;20118;-70
2023/05/20 06:38:21;;;;;;;5.30;1.45;;;13.90;85.90;;;;;;5075710;28;20114;-70
2023/05/20 06:40:50;;;;;;;2.85;1.30;;;14.00;85.90;;;;;;5075129;28;20082;-71
2023/05/20 06:43:16;;;;;;;2.80;1.30;;;14.00;85.50;;;;;;5075158;28;20438;-71
2023/05/20 06:45:42;;;;;;;2.63;1.17;;;14.10;85.20;;;;;;5075371;28;20127;-71
2023/05/20 06:48:08;;;;;;;4.05;1.17;;;14.20;84.60;;;;;;5058682;28;20126;-71
2023/05/20 06:50:34;;;;;;;4.68;1.25;;;14.30;85.00;;;;;;5074937;28;20595;-70
2023/05/20 06:53:00;;;;;;;4.00;1.30;;;14.40;84.90;;;;;;5074989;28;20036;-70
2023/05/20 06:55:26;;;;;;;5.22;1.38;;;14.50;84.70;;;;;;5075017;28;20036;-70
2023/05/20 06:57:52;;;;;;;3.53;1.40;;;14.50;83.50;;;;;;5058269;28;20078;-70
2023/05/20 07:00:18;;;;;;;2.83;1.08;;;14.60;83.10;;;;;;5074828;28;20072;-70
2023/05/20 07:02:43;;;;;;;4.50;1.10;;;14.70;83.10;;;;;;5074916;28;20122;-70
2023/05/20 07:05:09;;;;;;;2.58;1.40;;;14.80;82.30;;;;;;5075016;28;20040;-70
2023/05/20 07:07:35;;;;;;;4.13;1.67;;;14.80;81.90;;;;;;5074886;28;20408;-70
2023/05/20 07:10:04;;;;;;;2.78;1.40;;;14.90;81.60;;;;;;5074781;28;20132;-71
2023/05/20 07:12:32;;;;;;;3.15;1.50;;;14.90;81.10;;;;;;5058167;28;20119;-70
2023/05/20 07:14:57;;;;;;;2.72;1.45;;;15.00;81.30;;;;;;5058031;28;20484;-71
2023/05/20 07:17:24;;;;;;;4.00;1.27;;;15.10;81.40;;;;;;5074808;28;20032;-71
2023/05/20 07:19:50;;;;;;;3.08;1.30;;;15.20;80.10;;;;;;5058034;28;20036;-71
2023/05/20 07:22:15;;;;;;;3.05;1.65;;;15.30;80.00;;;;;;5074799;28;20044;-71
2023/05/20 07:24:41;;;;;;;7.40;1.48;;;15.40;79.90;;;;;;5074771;28;20043;-71
2023/05/20 07:27:07;;;;;;;5.57;1.42;;;15.40;79.80;;;;;;5074581;28;20076;-71
2023/05/20 07:29:36;;;;;;;4.55;1.33;;;15.50;79.00;;;;;;5074493;28;20119;-71
2023/05/20 07:32:07;;;;;;;4.30;1.50;;;15.60;78.60;;;;;;5074880;28;20043;-71
2023/05/20 07:34:33;;;;;;;5.35;1.38;;;15.70;78.70;;;;;;5074621;28;20119;-71
2023/05/20 07:36:58;;;;;;;4.15;1.63;;;15.70;78.70;;;;;;5076059;28;20068;-71
2023/05/20 07:39:24;;;;;;;3.40;1.45;;;15.80;78.60;;;;;;5078695;28;20044;-71
2023/05/20 07:41:49;;;;;;;6.10;1.50;;;15.80;78.50;;;;;;5078301;28;20515;-71
2023/05/20 07:44:17;;;;;;;3.72;1.52;;;15.90;78.90;;;;;;5061887;28;20070;-71
2023/05/20 07:46:43;;;;;;;3.75;1.77;;;16.10;78.30;;;;;;5078182;28;20093;-71
2023/05/20 07:49:09;;;;;;;5.07;1.38;;;16.10;77.70;;;;;;5077957;28;20036;-71
2023/05/20 07:51:35;;;;;;;4.63;1.63;;;16.30;77.70;;;;;;5061658;28;20066;-71
2023/05/20 07:54:01;;;;;;;5.75;1.85;;;16.40;77.40;;;;;;5078118;28;20123;-71
2023/05/20 07:56:27;;;;;;;8.70;1.60;;;16.50;77.10;;;;;;5077985;28;20040;-71
2023/05/20 07:58:57;;;;;;;7.25;1.58;;;16.60;76.80;;;;;;5077980;28;20044;-71
2023/05/20 08:01:23;;;;;;;4.82;1.33;;;16.70;76.40;;;;;;5077740;28;20040;-71
2023/05/20 08:03:49;;;;;;;3.83;1.27;;;16.80;76.50;;;;;;5077709;28;20036;-71
2023/05/20 08:06:14;;;;;;;5.22;1.75;;;16.90;76.50;;;;;;5061101;28;20066;-71
2023/05/20 08:08:41;;;;;;;4.90;1.58;;;17.00;76.40;;;;;;5077714;28;20122;-71
2023/05/20 08:11:07;;;;;;;5.60;1.63;;;17.10;76.00;;;;;;5077661;28;20043;-71
2023/05/20 08:13:33;;;;;;;4.88;1.63;;;17.30;75.50;;;;;;5077736;28;20032;-71
2023/05/20 08:15:59;;;;;;;4.07;1.55;;;17.40;75.90;;;;;;5077632;28;20157;-71
2023/05/20 08:18:26;;;;;;;3.95;1.70;;;17.60;75.00;;;;;;5077628;28;20404;-71
2023/05/20 08:20:52;;;;;;;6.47;1.75;;;17.70;74.90;;;;;;5077550;28;20074;-71
2023/05/20 08:23:17;;;;;;;4.20;1.60;;;17.80;74.30;;;;;;5061007;28;20048;-71
2023/05/20 08:25:45;;;;;;;6.63;1.67;;;17.90;73.20;;;;;;5077455;28;20121;-71
2023/05/20 08:28:11;;;;;;;5.43;1.58;;;18.00;73.30;;;;;;5077460;28;20043;-71
2023/05/20 08:30:37;;;;;;;4.03;1.98;;;18.10;73.00;;;;;;5077207;28;20101;-71
2023/05/20 08:33:02;;;;;;;6.97;1.70;;;18.30;73.40;;;;;;5077421;28;20035;-71
2023/05/20 08:35:28;;;;;;;5.50;1.58;;;18.50;72.70;;;;;;5077533;28;20036;-71
2023/05/20 08:37:53;;;;;;;7.35;1.85;;;18.60;72.00;;;;;;5060652;28;20040;-70
2023/05/20 08:40:20;;;;;;;7.38;1.90;;;18.70;71.30;;;;;;5060566;28;20059;-71
2023/05/20 08:42:47;;;;;;;8.68;1.55;;;18.80;71.00;;;;;;5077119;28;20051;-71
2023/05/20 08:45:17;;;;;;;4.20;1.80;;;18.90;70.60;;;;;;5077375;28;20561;-71
2023/05/20 08:47:43;;;;;;;3.22;1.50;;;19.00;70.20;;;;;;5076528;28;20083;-71
2023/05/20 08:50:10;;;;;;;4.03;1.65;;;19.10;70.00;;;;;;5076400;28;20047;-71
2023/05/20 08:52:40;;;;;;;3.45;1.45;;;19.20;69.90;;;;;;5060558;28;20044;-72
2023/05/20 08:55:08;;;;;;;3.63;1.73;;;19.30;69.10;;;;;;5077024;28;20040;-72
2023/05/20 08:57:35;;;;;;;7.43;1.77;;;19.40;69.20;;;;;;5076878;28;20527;-72
2023/05/20 09:00:08;;;;;;;5.13;2.20;;;19.50;68.40;;;;;;5076673;28;20040;-71
2023/05/20 09:02:37;;;;;;;4.93;1.73;;;19.60;68.90;;;;;;5077089;28;20059;-71
2023/05/20 09:05:03;;;;;;;5.45;1.73;;;19.60;68.00;;;;;;5060017;28;20050;-70
2023/05/20 09:07:30;;;;;;;6.43;1.55;;;19.70;68.10;;;;;;5059987;28;20408;-70
2023/05/20 09:09:56;;;;;;;4.05;1.60;;;19.80;69.00;;;;;;5076469;28;20467;-71
2023/05/20 09:12:22;;;;;;;5.40;1.58;;;19.90;68.90;;;;;;5060209;28;20036;-70
2023/05/20 09:14:48;;;;;;;5.22;2.20;;;20.00;67.60;;;;;;5076476;28;20097;-70
2023/05/20 09:17:16;;;;;;;5.43;1.73;;;20.20;67.20;;;;;;5076906;28;20074;-70
2023/05/20 09:19:42;;;;;;;4.03;1.65;;;20.30;66.00;;;;;;5076382;28;20071;-70
2023/05/20 09:22:07;;;;;;;2.53;1.55;;;20.40;66.10;;;;;;5076434;28;20083;-71
2023/05/20 09:24:33;;;;;;;6.07;1.85;;;20.60;65.70;;;;;;5076355;28;20124;-71
2023/05/20 09:26:59;;;;;;;6.10;2.30;;;20.70;65.10;;;;;;5076589;28;20128;-71
2023/05/20 09:29:25;;;;;;;5.22;2.10;;;20.70;64.30;;;;;;5076158;28;20044;-71
2023/05/20 09:31:52;;;;;;;3.65;1.65;;;20.70;64.00;;;;;;5076157;28;20519;-71
2023/05/20 09:34:19;;;;;;;9.70;2.10;;;20.70;63.10;;;;;;5076157;28;20040;-71
2023/05/20 09:36:49;;;;;;;4.63;1.67;;;20.90;63.60;;;;;;5076128;28;20047;-71
2023/05/20 09:39:18;;;;;;;6.38;1.77;;;21.00;63.20;;;;;;5075959;28;20579;-70
2023/05/20 09:42:12;;;;;;;3.45;1.80;;;21.00;63.20;;;;;;5076053;28;20040;-70
2023/05/20 09:44:38;;;;;;;4.93;1.90;;;21.00;62.80;;;;;;5076027;28;20089;-70
2023/05/20 09:47:06;;;;;;;6.10;1.50;;;20.80;62.90;;;;;;5075881;28;20044;-70
2023/05/20 09:49:34;;;;;;;5.68;1.80;;;20.90;62.90;;;;;;5075949;28;20043;-70
2023/05/20 09:52:02;;;;;;;4.00;1.52;;;21.00;62.30;;;;;;5076075;28;20044;-70
2023/05/20 09:54:29;;;;;;;3.63;1.30;;;21.00;61.40;;;;;;5075684;28;20125;-70
2023/05/20 09:56:58;;;;;;;6.13;2.17;;;21.10;60.40;;;;;;5075898;28;20032;-71
2023/05/20 09:59:25;;;;;;;3.80;1.33;;;21.20;59.70;;;;;;5075567;28;20499;-71
2023/05/20 10:01:51;;;;;;;4.65;1.65;;;21.30;58.70;;;;;;5075507;28;20565;-71
2023/05/20 10:04:19;;;;;;;4.95;1.38;;;21.50;59.00;;;;;;5075546;28;20040;-71
2023/05/20 10:07:22;;;;;;;6.68;1.50;;;21.70;57.60;;;;;;5075828;28;20044;-71
2023/05/20 10:10:02;;;;;;;4.53;1.40;;;21.90;55.90;;;;;;5076527;28;20102;-70
2023/05/20 10:12:52;;;;;;;6.03;1.70;;;22.10;57.70;;;;;;5075515;28;20048;-71
2023/05/20 10:15:27;;;;;;;5.57;1.50;;;22.00;56.10;;;;;;5075438;28;20036;-70
2023/05/20 10:18:31;;;;;;;7.13;1.77;;;22.10;55.70;;;;;;5075436;28;20123;-71
2023/05/20 10:20:56;;;;;;;5.60;1.70;;;22.30;56.00;;;;;;5075242;28;20044;-71
2023/05/20 10:23:29;;;;;;;3.38;1.52;;;22.30;56.20;;;;;;5075277;28;20123;-71
2023/05/20 10:25:56;;;;;;;4.45;1.48;;;22.20;54.90;;;;;;5075385;28;20036;-71
2023/05/20 10:28:35;;;;;;;3.35;1.42;;;22.10;55.50;;;;;;5075297;28;20119;-71
2023/05/20 10:31:01;;;;;;;5.07;1.88;;;22.00;55.20;;;;;;5058500;28;20043;-71
2023/05/20 10:33:28;;;;;;;9.05;1.50;;;21.80;55.30;;;;;;5075230;28;20485;-70
2023/05/20 10:36:01;;;;;;;7.22;1.50;;;21.70;55.40;;;;;;5075146;28;20381;-72
2023/05/20 10:38:27;;;;;;;4.45;1.38;;;21.70;55.70;;;;;;5075507;28;20105;-71
2023/05/20 10:40:52;;;;;;;4.85;1.60;;;21.70;55.50;;;;;;5075480;28;20423;-71
2023/05/20 10:43:27;;;;;;;3.72;1.30;;;21.70;56.00;;;;;;5075164;28;20523;-71
2023/05/20 10:45:56;;;;;;;8.02;1.73;;;21.80;55.40;;;;;;5075092;28;20048;-71
2023/05/20 10:48:30;;;;;;;4.38;1.70;;;21.70;55.30;;;;;;5074965;28;20044;-71
2023/05/20 10:51:05;;;;;;;4.60;1.65;;;21.70;55.20;;;;;;5075244;28;20127;-72
2023/05/20 10:53:43;;;;;;;9.25;1.40;;;21.60;54.70;;;;;;5058545;28;20044;-71
2023/05/20 10:56:20;;;;;;;5.75;1.60;;;21.60;54.80;;;;;;5058200;28;20086;-71
2023/05/20 10:58:47;;;;;;;4.82;1.50;;;21.70;54.90;;;;;;5075013;28;20036;-71
2023/05/20 11:01:13;;;;;;;5.57;1.50;;;21.70;55.30;;;;;;5074797;28;20077;-70
2023/05/20 11:03:40;;;;;;;5.05;1.45;;;21.70;55.50;;;;;;5074914;28;20546;-71
2023/05/20 11:06:27;;;;;;;3.47;1.30;;;21.80;55.90;;;;;;5074922;28;20079;-71
2023/05/20 11:08:53;;;;;;;2.65;1.33;;;21.90;54.50;;;;;;5074822;28;20040;-71
2023/05/20 11:11:19;;;;;;;3.75;1.40;;;21.90;55.00;;;;;;5058741;28;20036;-71
2023/05/20 11:13:49;;;;;;;4.20;1.63;;;22.00;55.20;;;;;;5079080;28;20401;-71
2023/05/20 11:16:14;;;;;;;7.13;1.88;;;22.20;54.80;;;;;;5079075;28;20392;-70
2023/05/20 11:18:40;;;;;;;5.30;1.23;;;22.30;54.60;;;;;;5078808;28;20043;-72
2023/05/20 11:21:05;;;;;;;2.90;1.30;;;22.50;54.70;;;;;;5078653;28;20028;-72
2023/05/20 11:23:31;;;;;;;4.22;1.70;;;22.60;53.40;;;;;;5078728;28;20039;-72
2023/05/20 11:25:57;;;;;;;5.30;1.85;;;22.80;54.50;;;;;;5078600;28;20058;-72
2023/05/20 11:28:23;;;;;;;7.47;1.77;;;22.90;54.40;;;;;;5078545;28;20043;-73
2023/05/20 11:30:51;;;;;;;3.38;1.40;;;23.10;54.10;;;;;;5078358;28;20505;-73
2023/05/20 11:33:17;;;;;;;4.75;1.50;;;23.20;53.10;;;;;;5078496;28;20556;-73
2023/05/20 11:35:48;;;;;;;5.45;1.38;;;23.20;52.80;;;;;;5078394;28;20396;-73
2023/05/20 11:38:15;;;;;;;4.03;1.63;;;23.10;52.60;;;;;;5078358;28;20039;-73
2023/05/20 11:40:45;;;;;;;5.38;1.52;;;22.90;52.20;;;;;;5078266;28;20048;-73
2023/05/20 11:43:12;;;;;;;3.25;1.30;;;22.60;52.40;;;;;;5078294;28;20048;-73
2023/05/20 11:45:43;;;;;;;6.85;1.45;;;22.60;53.40;;;;;;5078250;28;20044;-73
2023/05/20 11:48:10;;;;;;;4.32;1.70;;;22.90;53.50;;;;;;5078284;28;20040;-73
2023/05/20 11:50:43;;;;;;;3.13;1.40;;;23.00;52.40;;;;;;5078091;28;20125;-72
2023/05/20 11:53:10;;;;;;;4.38;1.30;;;23.30;51.60;;;;;;5078470;28;20040;-73
2023/05/20 11:55:47;;;;;;;4.25;1.48;;;23.60;51.10;;;;;;5078368;28;20150;-73
2023/05/20 11:58:21;;;;;;;4.57;1.70;;;23.40;51.00;;;;;;5061300;28;20074;-73
2023/05/20 12:00:47;;;;;;;3.78;1.48;;;23.20;50.90;;;;;;5077768;28;20382;-73
2023/05/20 12:03:13;;;;;;;7.53;1.40;;;22.90;51.90;;;;;;5077965;28;20043;-73
2023/05/20 12:05:39;;;;;;;3.30;1.63;;;22.70;52.20;;;;;;5061275;28;20040;-73
2023/05/20 12:08:05;;;;;;;4.65;1.30;;;22.40;52.30;;;;;;5061119;28;20051;-73
2023/05/20 12:10:31;;;;;;;8.52;1.40;;;22.20;52.60;;;;;;5077691;28;20043;-73
2023/05/20 12:12:58;;;;;;;9.35;1.40;;;22.10;53.00;;;;;;5078041;28;20036;-73
2023/05/20 12:15:23;;;;;;;2.78;1.50;;;22.20;53.30;;;;;;5077689;28;20507;-73
2023/05/20 12:17:52;;;;;;;4.07;1.33;;;22.20;52.90;;;;;;5077942;28;20083;-73
2023/05/20 12:20:21;;;;;;;3.40;1.70;;;22.40;53.10;;;;;;5077773;28;20098;-73
2023/05/20 12:22:47;;;;;;;4.35;1.40;;;22.80;52.90;;;;;;5077434;28;20579;-73
2023/05/20 12:25:15;;;;;;;3.08;1.50;;;23.00;52.00;;;;;;5077771;28;20131;-73
2023/05/20 12:27:41;;;;;;;5.47;1.48;;;23.20;52.30;;;;;;5077462;28;20051;-73
2023/05/20 12:30:08;;;;;;;4.93;1.40;;;23.10;51.80;;;;;;5077367;28;20137;-73
2023/05/20 12:32:37;;;;;;;3.30;1.40;;;22.70;51.90;;;;;;5078242;28;20044;-73
2023/05/20 12:35:03;;;;;;;3.65;1.25;;;22.80;53.00;;;;;;5077327;28;20435;-73
2023/05/20 12:37:29;;;;;;;7.28;1.88;;;23.00;52.20;;;;;;5077594;28;20085;-73
2023/05/20 12:39:55;;;;;;;5.25;1.50;;;23.00;52.10;;;;;;5077219;28;20040;-73
2023/05/20 12:42:20;;;;;;;2.78;1.50;;;22.90;52.10;;;;;;5077180;28;20040;-73
2023/05/20 12:44:46;;;;;;;8.23;1.50;;;22.60;51.60;;;;;;5077205;28;20079;-73